sensor_id;sensor_type;location;lat;lon;timestamp;temperature;humidity
7842;DHT22;3966;51.052;13.820;2023-02-01T00:01:53;5.70;99.90
7842;DHT22;3966;51.052;13.820;2023-02-01T00:04:19;5.70;99.90
7842;DHT22;3966;51.052;13.820;2023-02-01T00:06:45;5.70;99.90
7842;DHT22;3966;51.052;13.820;2023-02-01T00:09:11;5.70;99.90
7842;DHT22;3966;51.052;13.820;2023-02-01T00:11:36;5.60;99.90
7842;DHT22;3966;51.052;13.820;2023-02-01T00:14:02;5.70;99.90
7842;DHT22;3966;51.052;13.820;2023-02-01T00:16:30;5.70;99.90
7842;DHT22;3966;51.052;13.820;2023-02-01T00:19:09;5.60;99.90
7842;DHT22;3966;51.052;13.820;2023-02-01T00:21:36;5.60;99.90
7842;DHT22;3966;51.052;13.820;2023-02-01T00:24:02;5.70;99.90
7842;DHT22;3966;51.052;13.820;2023-02-01T00:26:37;5.70;99.90
7842;DHT22;3966;51.052;13.820;2023-02-01T00:29:05;5.70;99.90
7842;DHT22;3966;51.052;13.820;2023-02-01T00:31:31;5.70;99.90
7842;DHT22;3966;51.052;13.820;2023-02-01T00:33:57;5.70;99.90
7842;DHT22;3966;51.052;13.820;2023-02-01T00:36:23;5.70;99.90
7842;DHT22;3966;51.052;13.820;2023-02-01T00:38:49;5.70;99.90
7842;DHT22;3966;51.052;13.820;2023-02-01T00:41:17;5.70;99.90
7842;DHT22;3966;51.052;13.820;2023-02-01T00:43:43;5.70;99.90
7842;DHT22;3966;51.052;13.820;2023-02-01T00:46:10;5.70;99.90
7842;DHT22;3966;51.052;13.820;2023-02-01T00:48:36;5.70;99.90
7842;DHT22;3966;51.052;13.820;2023-02-01T00:51:08;5.80;99.90
7842;DHT22;3966;51.052;13.820;2023-02-01T00:53:34;5.70;99.90
7842;DHT22;3966;51.052;13.820;2023-02-01T00:56:00;5.80;99.90
7842;DHT22;3966;51.052;13.820;2023-02-01T00:58:26;5.80;99.90
7842;DHT22;3966;51.052;13.820;2023-02-01T01:01:13;5.80;99.90
7842;DHT22;3966;51.052;13.820;2023-02-01T01:03:41;5.70;99.90
7842;DHT22;3966;51.052;13.820;2023-02-01T01:06:15;5.80;99.90
7842;DHT22;3966;51.052;13.820;2023-02-01T01:08:42;5.80;99.90
7842;DHT22;3966;51.052;13.820;2023-02-01T01:11:12;5.80;99.90
7842;DHT22;3966;51.052;13.820;2023-02-01T01:13:38;5.80;99.90
7842;DHT22;3966;51.052;13.820;2023-02-01T01:16:05;5.80;99.90
7842;DHT22;3966;51.052;13.820;2023-02-01T01:18:33;5.80;99.90
7842;DHT22;3966;51.052;13.820;2023-02-01T01:20:59;5.80;99.90
7842;DHT22;3966;51.052;13.820;2023-02-01T01:23:25;5.80;99.90
7842;DHT22;3966;51.052;13.820;2023-02-01T01:25:51;5.80;99.90
7842;DHT22;3966;51.052;13.820;2023-02-01T01:28:17;5.80;99.90
7842;DHT22;3966;51.052;13.820;2023-02-01T01:30:43;5.80;99.90
7842;DHT22;3966;51.052;13.820;2023-02-01T01:33:09;5.80;99.90
7842;DHT22;3966;51.052;13.820;2023-02-01T01:35:35;5.80;99.90
7842;DHT22;3966;51.052;13.820;2023-02-01T01:38:01;5.80;99.90
7842;DHT22;3966;51.052;13.820;2023-02-01T01:40:29;5.80;99.90
7842;DHT22;3966;51.052;13.820;2023-02-01T01:42:56;5.80;99.90
7842;DHT22;3966;51.052;13.820;2023-02-01T01:45:29;5.80;99.90
7842;DHT22;3966;51.052;13.820;2023-02-01T01:47:58;5.80;99.90
7842;DHT22;3966;51.052;13.820;2023-02-01T01:50:39;5.80;99.90
7842;DHT22;3966;51.052;13.820;2023-02-01T01:53:08;5.80;99.90
7842;DHT22;3966;51.052;13.820;2023-02-01T01:55:37;5.80;99.90
7842;DHT22;3966;51.052;13.820;2023-02-01T01:58:08;5.80;99.90
7842;DHT22;3966;51.052;13.820;2023-02-01T02:00:35;5.80;99.90
7842;DHT22;3966;51.052;13.820;2023-02-01T02:03:05;5.80;99.90
7842;DHT22;3966;51.052;13.820;2023-02-01T02:05:34;5.80;99.90
7842;DHT22;3966;51.052;13.820;2023-02-01T02:08:00;5.80;99.90
7842;DHT22;3966;51.052;13.820;2023-02-01T02:10:29;5.80;99.90
7842;DHT22;3966;51.052;13.820;2023-02-01T02:13:16;5.80;99.90
7842;DHT22;3966;51.052;13.820;2023-02-01T02:15:47;5.80;99.90
7842;DHT22;3966;51.052;13.820;2023-02-01T02:21:23;5.80;99.90
7842;DHT22;3966;51.052;13.820;2023-02-01T02:26:57;5.80;99.90
7842;DHT22;3966;51.052;13.820;2023-02-01T02:30:09;5.80;99.90
7842;DHT22;3966;51.052;13.820;2023-02-01T02:41:33;5.80;99.90
7842;DHT22;3966;51.052;13.820;2023-02-01T02:44:48;5.70;99.90
7842;DHT22;3966;51.052;13.820;2023-02-01T02:48:02;5.70;99.90
7842;DHT22;3966;51.052;13.820;2023-02-01T02:53:23;5.80;99.90
7842;DHT22;3966;51.052;13.820;2023-02-01T02:56:12;5.70;99.90
7842;DHT22;3966;51.052;13.820;2023-02-01T02:58:57;5.70;99.90
7842;DHT22;3966;51.052;13.820;2023-02-01T03:01:43;5.70;99.90
7842;DHT22;3966;51.052;13.820;2023-02-01T03:04:27;5.60;99.90
7842;DHT22;3966;51.052;13.820;2023-02-01T03:06:53;5.70;99.90
7842;DHT22;3966;51.052;13.820;2023-02-01T03:09:27;5.60;99.90
7842;DHT22;3966;51.052;13.820;2023-02-01T03:12:00;5.60;99.90
7842;DHT22;3966;51.052;13.820;2023-02-01T03:14:48;5.60;99.90
7842;DHT22;3966;51.052;13.820;2023-02-01T03:17:21;5.60;99.90
7842;DHT22;3966;51.052;13.820;2023-02-01T03:19:50;5.60;99.90
7842;DHT22;3966;51.052;13.820;2023-02-01T03:22:21;5.60;99.90
7842;DHT22;3966;51.052;13.820;2023-02-01T03:24:51;5.60;99.90
7842;DHT22;3966;51.052;13.820;2023-02-01T03:27:43;5.60;99.90
7842;DHT22;3966;51.052;13.820;2023-02-01T03:32:40;5.60;99.90
7842;DHT22;3966;51.052;13.820;2023-02-01T03:40:53;5.60;99.90
7842;DHT22;3966;51.052;13.820;2023-02-01T03:43:21;5.50;99.90
7842;DHT22;3966;51.052;13.820;2023-02-01T03:45:52;5.50;99.90
7842;DHT22;3966;51.052;13.820;2023-02-01T03:48:20;5.50;99.90
7842;DHT22;3966;51.052;13.820;2023-02-01T03:50:52;5.50;99.90
7842;DHT22;3966;51.052;13.820;2023-02-01T03:53:20;5.50;99.90
7842;DHT22;3966;51.052;13.820;2023-02-01T03:55:48;5.60;99.90
7842;DHT22;3966;51.052;13.820;2023-02-01T03:58:22;5.60;99.90
7842;DHT22;3966;51.052;13.820;2023-02-01T04:00:57;5.60;99.90
7842;DHT22;3966;51.052;13.820;2023-02-01T04:03:23;5.60;99.90
7842;DHT22;3966;51.052;13.820;2023-02-01T04:05:49;5.60;99.90
7842;DHT22;3966;51.052;13.820;2023-02-01T04:08:15;5.60;99.90
7842;DHT22;3966;51.052;13.820;2023-02-01T04:10:41;5.60;99.90
7842;DHT22;3966;51.052;13.820;2023-02-01T04:13:07;5.60;99.90
7842;DHT22;3966;51.052;13.820;2023-02-01T04:15:32;5.60;99.90
7842;DHT22;3966;51.052;13.820;2023-02-01T04:18:00;5.60;99.90
7842;DHT22;3966;51.052;13.820;2023-02-01T04:20:25;5.60;99.90
7842;DHT22;3966;51.052;13.820;2023-02-01T04:22:51;5.60;99.90
7842;DHT22;3966;51.052;13.820;2023-02-01T04:25:17;5.70;99.90
7842;DHT22;3966;51.052;13.820;2023-02-01T04:27:43;5.70;99.90
7842;DHT22;3966;51.052;13.820;2023-02-01T04:30:09;5.60;99.90
7842;DHT22;3966;51.052;13.820;2023-02-01T04:32:38;5.70;99.90
7842;DHT22;3966;51.052;13.820;2023-02-01T04:35:04;5.70;99.90
7842;DHT22;3966;51.052;13.820;2023-02-01T04:37:30;5.70;99.90
7842;DHT22;3966;51.052;13.820;2023-02-01T04:39:55;5.70;99.90
7842;DHT22;3966;51.052;13.820;2023-02-01T04:42:21;5.70;99.90
7842;DHT22;3966;51.052;13.820;2023-02-01T04:44:47;5.70;99.90
7842;DHT22;3966;51.052;13.820;2023-02-01T04:47:13;5.80;99.90
7842;DHT22;3966;51.052;13.820;2023-02-01T04:49:39;5.70;99.90
7842;DHT22;3966;51.052;13.820;2023-02-01T04:52:05;5.70;99.90
7842;DHT22;3966;51.052;13.820;2023-02-01T04:54:31;5.70;99.90
7842;DHT22;3966;51.052;13.820;2023-02-01T04:56:56;5.70;99.90
7842;DHT22;3966;51.052;13.820;2023-02-01T04:59:22;5.70;99.90
7842;DHT22;3966;51.052;13.820;2023-02-01T05:01:48;5.70;99.90
7842;DHT22;3966;51.052;13.820;2023-02-01T05:04:14;5.70;99.90
7842;DHT22;3966;51.052;13.820;2023-02-01T05:06:39;5.70;99.90
7842;DHT22;3966;51.052;13.820;2023-02-01T05:09:05;5.70;99.90
7842;DHT22;3966;51.052;13.820;2023-02-01T05:11:31;5.70;99.90
7842;DHT22;3966;51.052;13.820;2023-02-01T05:14:15;5.60;99.90
7842;DHT22;3966;51.052;13.820;2023-02-01T05:16:40;5.60;99.90
7842;DHT22;3966;51.052;13.820;2023-02-01T05:19:06;5.60;99.90
7842;DHT22;3966;51.052;13.820;2023-02-01T05:21:32;5.70;99.90
7842;DHT22;3966;51.052;13.820;2023-02-01T05:23:57;5.70;99.90
7842;DHT22;3966;51.052;13.820;2023-02-01T05:26:41;5.70;99.90
7842;DHT22;3966;51.052;13.820;2023-02-01T05:29:08;5.70;99.90
7842;DHT22;3966;51.052;13.820;2023-02-01T05:31:34;5.70;99.90
7842;DHT22;3966;51.052;13.820;2023-02-01T05:34:00;5.70;99.90
7842;DHT22;3966;51.052;13.820;2023-02-01T05:36:26;5.70;99.90
7842;DHT22;3966;51.052;13.820;2023-02-01T05:38:51;5.70;99.90
7842;DHT22;3966;51.052;13.820;2023-02-01T05:41:17;5.70;99.90
7842;DHT22;3966;51.052;13.820;2023-02-01T05:43:43;5.70;99.90
7842;DHT22;3966;51.052;13.820;2023-02-01T05:46:09;5.70;99.90
7842;DHT22;3966;51.052;13.820;2023-02-01T05:48:38;5.60;99.90
7842;DHT22;3966;51.052;13.820;2023-02-01T05:51:04;5.60;99.90
7842;DHT22;3966;51.052;13.820;2023-02-01T05:53:30;5.60;99.90
7842;DHT22;3966;51.052;13.820;2023-02-01T05:55:56;5.70;99.90
7842;DHT22;3966;51.052;13.820;2023-02-01T05:58:21;5.70;99.90
7842;DHT22;3966;51.052;13.820;2023-02-01T06:00:47;5.70;99.90
7842;DHT22;3966;51.052;13.820;2023-02-01T06:03:12;5.70;99.90
7842;DHT22;3966;51.052;13.820;2023-02-01T06:05:38;5.70;99.90
7842;DHT22;3966;51.052;13.820;2023-02-01T06:08:04;5.70;99.90
7842;DHT22;3966;51.052;13.820;2023-02-01T06:10:30;5.70;99.90
7842;DHT22;3966;51.052;13.820;2023-02-01T06:12:55;5.70;99.90
7842;DHT22;3966;51.052;13.820;2023-02-01T06:15:21;5.70;99.90
7842;DHT22;3966;51.052;13.820;2023-02-01T06:17:47;5.70;99.90
7842;DHT22;3966;51.052;13.820;2023-02-01T06:20:14;5.70;99.90
7842;DHT22;3966;51.052;13.820;2023-02-01T06:22:40;5.70;99.90
7842;DHT22;3966;51.052;13.820;2023-02-01T06:25:07;5.70;99.90
7842;DHT22;3966;51.052;13.820;2023-02-01T06:27:33;5.70;99.90
7842;DHT22;3966;51.052;13.820;2023-02-01T06:29:59;5.70;99.90
7842;DHT22;3966;51.052;13.820;2023-02-01T06:32:25;5.70;99.90
7842;DHT22;3966;51.052;13.820;2023-02-01T06:34:51;5.70;99.90
7842;DHT22;3966;51.052;13.820;2023-02-01T06:37:21;5.70;99.90
7842;DHT22;3966;51.052;13.820;2023-02-01T06:39:48;5.70;99.90
7842;DHT22;3966;51.052;13.820;2023-02-01T06:42:14;5.70;99.90
7842;DHT22;3966;51.052;13.820;2023-02-01T06:44:40;5.70;99.90
7842;DHT22;3966;51.052;13.820;2023-02-01T06:47:06;5.70;99.90
7842;DHT22;3966;51.052;13.820;2023-02-01T06:49:31;5.70;99.90
7842;DHT22;3966;51.052;13.820;2023-02-01T06:51:57;5.70;99.90
7842;DHT22;3966;51.052;13.820;2023-02-01T06:54:28;5.60;99.90
7842;DHT22;3966;51.052;13.820;2023-02-01T06:56:54;5.60;99.90
7842;DHT22;3966;51.052;13.820;2023-02-01T06:59:20;5.60;99.90
7842;DHT22;3966;51.052;13.820;2023-02-01T07:01:46;5.60;99.90
7842;DHT22;3966;51.052;13.820;2023-02-01T07:04:12;5.60;99.90
7842;DHT22;3966;51.052;13.820;2023-02-01T07:06:38;5.60;99.90
7842;DHT22;3966;51.052;13.820;2023-02-01T07:09:04;5.60;99.90
7842;DHT22;3966;51.052;13.820;2023-02-01T07:11:30;5.60;99.90
7842;DHT22;3966;51.052;13.820;2023-02-01T07:13:56;5.60;99.90
7842;DHT22;3966;51.052;13.820;2023-02-01T07:16:21;5.60;99.90
7842;DHT22;3966;51.052;13.820;2023-02-01T07:18:47;5.60;99.90
7842;DHT22;3966;51.052;13.820;2023-02-01T07:21:14;5.60;99.90
7842;DHT22;3966;51.052;13.820;2023-02-01T07:23:40;5.60;99.90
7842;DHT22;3966;51.052;13.820;2023-02-01T07:26:07;5.50;99.90
7842;DHT22;3966;51.052;13.820;2023-02-01T07:28:34;5.50;99.90
7842;DHT22;3966;51.052;13.820;2023-02-01T07:31:08;5.40;99.90
7842;DHT22;3966;51.052;13.820;2023-02-01T07:33:35;5.40;99.90
7842;DHT22;3966;51.052;13.820;2023-02-01T07:36:03;5.30;99.90
7842;DHT22;3966;51.052;13.820;2023-02-01T07:38:30;5.10;99.90
7842;DHT22;3966;51.052;13.820;2023-02-01T07:41:00;5.10;99.90
7842;DHT22;3966;51.052;13.820;2023-02-01T07:43:26;5.00;99.90
7842;DHT22;3966;51.052;13.820;2023-02-01T07:45:53;5.00;99.90
7842;DHT22;3966;51.052;13.820;2023-02-01T07:48:19;4.90;99.90
7842;DHT22;3966;51.052;13.820;2023-02-01T07:50:45;4.90;99.90
7842;DHT22;3966;51.052;13.820;2023-02-01T07:53:11;4.90;99.90
7842;DHT22;3966;51.052;13.820;2023-02-01T07:55:40;4.90;99.90
7842;DHT22;3966;51.052;13.820;2023-02-01T07:58:06;5.00;99.90
7842;DHT22;3966;51.052;13.820;2023-02-01T08:00:32;5.00;99.90
7842;DHT22;3966;51.052;13.820;2023-02-01T08:03:17;5.00;99.90
7842;DHT22;3966;51.052;13.820;2023-02-01T08:05:42;5.00;99.90
7842;DHT22;3966;51.052;13.820;2023-02-01T08:08:08;5.00;99.90
7842;DHT22;3966;51.052;13.820;2023-02-01T08:10:33;5.00;99.90
7842;DHT22;3966;51.052;13.820;2023-02-01T08:13:01;5.10;99.90
7842;DHT22;3966;51.052;13.820;2023-02-01T08:15:28;5.10;99.90
7842;DHT22;3966;51.052;13.820;2023-02-01T08:17:54;5.20;99.90
7842;DHT22;3966;51.052;13.820;2023-02-01T08:20:21;5.10;99.90
7842;DHT22;3966;51.052;13.820;2023-02-01T08:22:48;5.20;99.90
7842;DHT22;3966;51.052;13.820;2023-02-01T08:25:14;5.20;99.90
7842;DHT22;3966;51.052;13.820;2023-02-01T08:27:40;5.20;99.90
7842;DHT22;3966;51.052;13.820;2023-02-01T08:30:06;5.20;99.90
7842;DHT22;3966;51.052;13.820;2023-02-01T08:32:34;5.20;99.90
7842;DHT22;3966;51.052;13.820;2023-02-01T08:35:01;5.20;99.90
7842;DHT22;3966;51.052;13.820;2023-02-01T08:37:27;5.00;99.90
7842;DHT22;3966;51.052;13.820;2023-02-01T08:39:52;5.00;99.90
7842;DHT22;3966;51.052;13.820;2023-02-01T08:42:18;5.00;99.90
7842;DHT22;3966;51.052;13.820;2023-02-01T08:45:03;5.00;99.90
7842;DHT22;3966;51.052;13.820;2023-02-01T08:47:30;5.00;99.90
7842;DHT22;3966;51.052;13.820;2023-02-01T08:49:56;5.10;99.90
7842;DHT22;3966;51.052;13.820;2023-02-01T08:52:22;5.20;99.90
7842;DHT22;3966;51.052;13.820;2023-02-01T08:54:48;5.30;99.90
7842;DHT22;3966;51.052;13.820;2023-02-01T08:57:13;5.40;99.90
7842;DHT22;3966;51.052;13.820;2023-02-01T08:59:39;5.50;99.90
7842;DHT22;3966;51.052;13.820;2023-02-01T09:02:05;5.60;99.90
7842;DHT22;3966;51.052;13.820;2023-02-01T09:04:30;5.70;99.90
7842;DHT22;3966;51.052;13.820;2023-02-01T09:06:56;5.80;99.90
7842;DHT22;3966;51.052;13.820;2023-02-01T09:09:22;5.80;99.90
7842;DHT22;3966;51.052;13.820;2023-02-01T09:11:48;5.90;99.90
7842;DHT22;3966;51.052;13.820;2023-02-01T09:14:16;5.90;99.90
7842;DHT22;3966;51.052;13.820;2023-02-01T09:16:41;5.90;99.90
7842;DHT22;3966;51.052;13.820;2023-02-01T09:19:07;5.90;99.90
7842;DHT22;3966;51.052;13.820;2023-02-01T09:21:33;5.90;99.90
7842;DHT22;3966;51.052;13.820;2023-02-01T09:23:58;5.90;99.90
7842;DHT22;3966;51.052;13.820;2023-02-01T09:26:24;5.90;99.90
7842;DHT22;3966;51.052;13.820;2023-02-01T09:28:51;5.90;99.90
7842;DHT22;3966;51.052;13.820;2023-02-01T09:31:17;5.90;99.90
7842;DHT22;3966;51.052;13.820;2023-02-01T09:33:42;5.90;99.90
7842;DHT22;3966;51.052;13.820;2023-02-01T09:36:08;5.80;99.90
7842;DHT22;3966;51.052;13.820;2023-02-01T09:38:34;5.70;99.90
7842;DHT22;3966;51.052;13.820;2023-02-01T09:41:00;5.60;99.90
7842;DHT22;3966;51.052;13.820;2023-02-01T09:48:42;5.50;99.90
7842;DHT22;3966;51.052;13.820;2023-02-01T09:51:23;5.40;99.90
7842;DHT22;3966;51.052;13.820;2023-02-01T09:56:35;5.20;99.90
7842;DHT22;3966;51.052;13.820;2023-02-01T09:59:23;5.10;99.90
7842;DHT22;3966;51.052;13.820;2023-02-01T10:01:51;4.90;99.90
7842;DHT22;3966;51.052;13.820;2023-02-01T10:04:17;4.60;99.90
7842;DHT22;3966;51.052;13.820;2023-02-01T10:09:39;4.40;99.90
7842;DHT22;3966;51.052;13.820;2023-02-01T10:23:56;4.20;99.90
7842;DHT22;3966;51.052;13.820;2023-02-01T10:26:30;4.10;99.90
7842;DHT22;3966;51.052;13.820;2023-02-01T10:29:03;4.20;99.90
7842;DHT22;3966;51.052;13.820;2023-02-01T10:31:31;4.20;99.90
7842;DHT22;3966;51.052;13.820;2023-02-01T10:34:13;4.20;99.90
7842;DHT22;3966;51.052;13.820;2023-02-01T10:36:47;4.20;99.90
7842;DHT22;3966;51.052;13.820;2023-02-01T10:39:15;4.20;99.90
7842;DHT22;3966;51.052;13.820;2023-02-01T10:41:41;4.20;99.90
7842;DHT22;3966;51.052;13.820;2023-02-01T10:44:15;4.30;99.90
7842;DHT22;3966;51.052;13.820;2023-02-01T10:46:42;4.30;99.90
7842;DHT22;3966;51.052;13.820;2023-02-01T10:54:21;4.40;99.90
7842;DHT22;3966;51.052;13.820;2023-02-01T10:56:49;4.50;99.90
7842;DHT22;3966;51.052;13.820;2023-02-01T10:59:20;4.50;99.90
7842;DHT22;3966;51.052;13.820;2023-02-01T11:01:49;4.60;99.90
7842;DHT22;3966;51.052;13.820;2023-02-01T11:04:17;4.70;99.90
7842;DHT22;3966;51.052;13.820;2023-02-01T11:07:04;4.80;99.90
7842;DHT22;3966;51.052;13.820;2023-02-01T11:09:38;4.80;99.90
7842;DHT22;3966;51.052;13.820;2023-02-01T11:12:05;4.90;99.90
7842;DHT22;3966;51.052;13.820;2023-02-01T11:14:40;5.10;99.90
7842;DHT22;3966;51.052;13.820;2023-02-01T11:19:45;5.30;99.90
7842;DHT22;3966;51.052;13.820;2023-02-01T11:22:12;5.40;99.90
7842;DHT22;3966;51.052;13.820;2023-02-01T11:24:39;5.40;99.90
7842;DHT22;3966;51.052;13.820;2023-02-01T11:27:14;5.50;99.90
7842;DHT22;3966;51.052;13.820;2023-02-01T11:29:43;5.50;99.90
7842;DHT22;3966;51.052;13.820;2023-02-01T11:32:12;5.50;99.90
7842;DHT22;3966;51.052;13.820;2023-02-01T11:37:59;5.60;99.90
7842;DHT22;3966;51.052;13.820;2023-02-01T11:45:31;5.70;99.90
7842;DHT22;3966;51.052;13.820;2023-02-01T11:47:59;5.70;99.90
7842;DHT22;3966;51.052;13.820;2023-02-01T11:56:19;6.00;99.90
7842;DHT22;3966;51.052;13.820;2023-02-01T12:17:54;5.80;99.90
7842;DHT22;3966;51.052;13.820;2023-02-01T12:28:35;5.90;99.90
7842;DHT22;3966;51.052;13.820;2023-02-01T12:31:15;5.90;99.90
7842;DHT22;3966;51.052;13.820;2023-02-01T12:37:11;6.10;99.90
7842;DHT22;3966;51.052;13.820;2023-02-01T12:45:11;6.20;99.90
7842;DHT22;3966;51.052;13.820;2023-02-01T12:47:46;6.20;99.90
7842;DHT22;3966;51.052;13.820;2023-02-01T12:50:28;6.20;99.90
7842;DHT22;3966;51.052;13.820;2023-02-01T12:53:07;6.20;99.90
7842;DHT22;3966;51.052;13.820;2023-02-01T12:55:38;6.30;99.90
7842;DHT22;3966;51.052;13.820;2023-02-01T12:58:15;6.30;99.90
7842;DHT22;3966;51.052;13.820;2023-02-01T13:00:59;6.30;99.90
7842;DHT22;3966;51.052;13.820;2023-02-01T13:05:58;6.30;99.90
7842;DHT22;3966;51.052;13.820;2023-02-01T13:11:24;6.40;99.90
7842;DHT22;3966;51.052;13.820;2023-02-01T13:14:03;6.40;99.90
7842;DHT22;3966;51.052;13.820;2023-02-01T13:16:36;6.40;99.90
7842;DHT22;3966;51.052;13.820;2023-02-01T13:19:26;6.40;99.90
7842;DHT22;3966;51.052;13.820;2023-02-01T13:22:19;6.40;99.90
7842;DHT22;3966;51.052;13.820;2023-02-01T13:24:50;6.50;99.90
7842;DHT22;3966;51.052;13.820;2023-02-01T13:27:17;6.50;99.90
7842;DHT22;3966;51.052;13.820;2023-02-01T13:29:58;6.50;99.90
7842;DHT22;3966;51.052;13.820;2023-02-01T13:33:09;6.50;99.90
7842;DHT22;3966;51.052;13.820;2023-02-01T13:36:21;6.60;99.90
7842;DHT22;3966;51.052;13.820;2023-02-01T13:41:49;6.60;99.90
7842;DHT22;3966;51.052;13.820;2023-02-01T13:44:28;6.70;99.90
7842;DHT22;3966;51.052;13.820;2023-02-01T13:46:58;6.70;99.90
7842;DHT22;3966;51.052;13.820;2023-02-01T13:49:27;6.70;99.90
7842;DHT22;3966;51.052;13.820;2023-02-01T13:51:56;6.80;99.90
7842;DHT22;3966;51.052;13.820;2023-02-01T13:54:34;6.80;99.90
7842;DHT22;3966;51.052;13.820;2023-02-01T13:57:03;6.80;99.90
7842;DHT22;3966;51.052;13.820;2023-02-01T13:59:53;6.80;99.90
7842;DHT22;3966;51.052;13.820;2023-02-01T14:10:56;6.80;99.90
7842;DHT22;3966;51.052;13.820;2023-02-01T14:13:39;6.90;99.90
7842;DHT22;3966;51.052;13.820;2023-02-01T14:21:28;6.90;99.90
7842;DHT22;3966;51.052;13.820;2023-02-01T14:26:50;6.90;99.90
7842;DHT22;3966;51.052;13.820;2023-02-01T14:29:29;6.90;99.90
7842;DHT22;3966;51.052;13.820;2023-02-01T14:32:15;7.00;99.90
7842;DHT22;3966;51.052;13.820;2023-02-01T14:44:44;7.00;99.90
7842;DHT22;3966;51.052;13.820;2023-02-01T14:47:27;6.90;99.90
7842;DHT22;3966;51.052;13.820;2023-02-01T14:52:24;6.90;99.90
7842;DHT22;3966;51.052;13.820;2023-02-01T14:54:56;6.90;99.90
7842;DHT22;3966;51.052;13.820;2023-02-01T14:57:25;6.90;99.90
7842;DHT22;3966;51.052;13.820;2023-02-01T14:59:59;6.90;99.90
7842;DHT22;3966;51.052;13.820;2023-02-01T15:02:27;6.80;99.90
7842;DHT22;3966;51.052;13.820;2023-02-01T15:04:59;6.80;99.90
7842;DHT22;3966;51.052;13.820;2023-02-01T15:07:26;6.80;99.90
7842;DHT22;3966;51.052;13.820;2023-02-01T15:09:54;6.80;99.90
7842;DHT22;3966;51.052;13.820;2023-02-01T15:12:27;6.80;99.90
7842;DHT22;3966;51.052;13.820;2023-02-01T15:15:12;6.80;99.90
7842;DHT22;3966;51.052;13.820;2023-02-01T15:17:38;6.80;99.90
7842;DHT22;3966;51.052;13.820;2023-02-01T15:20:22;6.80;99.90
7842;DHT22;3966;51.052;13.820;2023-02-01T15:23:14;6.80;99.90
7842;DHT22;3966;51.052;13.820;2023-02-01T15:25:40;6.70;99.90
7842;DHT22;3966;51.052;13.820;2023-02-01T15:28:14;6.70;99.90
7842;DHT22;3966;51.052;13.820;2023-02-01T15:31:04;6.60;99.90
7842;DHT22;3966;51.052;13.820;2023-02-01T15:33:31;6.50;99.90
7842;DHT22;3966;51.052;13.820;2023-02-01T15:38:37;6.30;99.90
7842;DHT22;3966;51.052;13.820;2023-02-01T15:41:18;6.20;99.90
7842;DHT22;3966;51.052;13.820;2023-02-01T15:48:54;6.20;99.90
7842;DHT22;3966;51.052;13.820;2023-02-01T15:51:29;6.20;99.90
7842;DHT22;3966;51.052;13.820;2023-02-01T15:54:01;6.20;99.90
7842;DHT22;3966;51.052;13.820;2023-02-01T15:56:33;6.20;99.90
7842;DHT22;3966;51.052;13.820;2023-02-01T15:59:01;6.30;99.90
7842;DHT22;3966;51.052;13.820;2023-02-01T16:01:27;6.30;99.90
7842;DHT22;3966;51.052;13.820;2023-02-01T16:04:17;6.30;99.90
7842;DHT22;3966;51.052;13.820;2023-02-01T16:06:53;6.30;99.90
7842;DHT22;3966;51.052;13.820;2023-02-01T16:09:24;6.30;99.90
7842;DHT22;3966;51.052;13.820;2023-02-01T16:11:56;6.30;99.90
7842;DHT22;3966;51.052;13.820;2023-02-01T16:14:23;6.30;99.90
7842;DHT22;3966;51.052;13.820;2023-02-01T16:16:50;6.30;99.90
7842;DHT22;3966;51.052;13.820;2023-02-01T16:19:17;6.20;99.90
7842;DHT22;3966;51.052;13.820;2023-02-01T16:21:43;6.00;99.90
7842;DHT22;3966;51.052;13.820;2023-02-01T16:24:09;5.90;99.90
7842;DHT22;3966;51.052;13.820;2023-02-01T16:26:35;5.70;99.90
7842;DHT22;3966;51.052;13.820;2023-02-01T16:29:01;5.70;99.90
7842;DHT22;3966;51.052;13.820;2023-02-01T16:31:34;5.60;99.90
7842;DHT22;3966;51.052;13.820;2023-02-01T16:34:01;5.60;99.90
7842;DHT22;3966;51.052;13.820;2023-02-01T16:36:27;5.70;99.90
7842;DHT22;3966;51.052;13.820;2023-02-01T16:38:54;5.60;99.90
7842;DHT22;3966;51.052;13.820;2023-02-01T16:41:21;5.60;99.90
7842;DHT22;3966;51.052;13.820;2023-02-01T16:43:53;5.40;99.90
7842;DHT22;3966;51.052;13.820;2023-02-01T16:46:21;5.40;99.90
7842;DHT22;3966;51.052;13.820;2023-02-01T16:48:58;5.30;99.90
7842;DHT22;3966;51.052;13.820;2023-02-01T16:51:26;5.20;99.90
7842;DHT22;3966;51.052;13.820;2023-02-01T16:53:53;5.10;99.90
7842;DHT22;3966;51.052;13.820;2023-02-01T16:56:22;5.00;99.90
7842;DHT22;3966;51.052;13.820;2023-02-01T16:58:48;4.80;99.90
7842;DHT22;3966;51.052;13.820;2023-02-01T17:01:15;4.80;99.90
7842;DHT22;3966;51.052;13.820;2023-02-01T17:03:42;4.80;99.90
7842;DHT22;3966;51.052;13.820;2023-02-01T17:06:15;4.80;99.90
7842;DHT22;3966;51.052;13.820;2023-02-01T17:08:44;4.70;99.90
7842;DHT22;3966;51.052;13.820;2023-02-01T17:11:12;4.60;99.90
7842;DHT22;3966;51.052;13.820;2023-02-01T17:13:39;4.50;99.90
7842;DHT22;3966;51.052;13.820;2023-02-01T17:18:41;3.10;99.90
7842;DHT22;3966;51.052;13.820;2023-02-01T17:21:09;3.00;99.90
7842;DHT22;3966;51.052;13.820;2023-02-01T17:23:36;3.20;99.90
7842;DHT22;3966;51.052;13.820;2023-02-01T17:26:02;3.10;99.90
7842;DHT22;3966;51.052;13.820;2023-02-01T17:28:28;3.20;99.90
7842;DHT22;3966;51.052;13.820;2023-02-01T17:30:54;3.30;99.90
7842;DHT22;3966;51.052;13.820;2023-02-01T17:33:25;3.30;99.90
7842;DHT22;3966;51.052;13.820;2023-02-01T17:35:53;3.30;99.90
7842;DHT22;3966;51.052;13.820;2023-02-01T17:38:19;3.30;99.90
7842;DHT22;3966;51.052;13.820;2023-02-01T17:40:45;3.30;99.90
7842;DHT22;3966;51.052;13.820;2023-02-01T17:43:17;3.30;99.90
7842;DHT22;3966;51.052;13.820;2023-02-01T17:45:49;3.30;99.90
7842;DHT22;3966;51.052;13.820;2023-02-01T17:48:21;3.20;99.90
7842;DHT22;3966;51.052;13.820;2023-02-01T17:50:48;3.20;99.90
7842;DHT22;3966;51.052;13.820;2023-02-01T17:53:17;3.30;99.90
7842;DHT22;3966;51.052;13.820;2023-02-01T17:55:45;3.30;99.90
7842;DHT22;3966;51.052;13.820;2023-02-01T17:58:13;3.20;99.90
7842;DHT22;3966;51.052;13.820;2023-02-01T18:00:40;3.30;99.90
7842;DHT22;3966;51.052;13.820;2023-02-01T18:03:06;3.30;99.90
7842;DHT22;3966;51.052;13.820;2023-02-01T18:05:38;3.30;99.90
7842;DHT22;3966;51.052;13.820;2023-02-01T18:08:06;3.40;99.90
7842;DHT22;3966;51.052;13.820;2023-02-01T18:10:31;3.40;99.90
7842;DHT22;3966;51.052;13.820;2023-02-01T18:12:57;3.40;99.90
7842;DHT22;3966;51.052;13.820;2023-02-01T18:15:24;3.40;99.90
7842;DHT22;3966;51.052;13.820;2023-02-01T18:17:50;3.40;99.90
7842;DHT22;3966;51.052;13.820;2023-02-01T18:20:21;3.50;99.90
7842;DHT22;3966;51.052;13.820;2023-02-01T18:22:48;3.50;99.90
7842;DHT22;3966;51.052;13.820;2023-02-01T18:25:17;3.50;99.90
7842;DHT22;3966;51.052;13.820;2023-02-01T18:27:48;3.60;99.90
7842;DHT22;3966;51.052;13.820;2023-02-01T18:30:15;3.50;99.90
7842;DHT22;3966;51.052;13.820;2023-02-01T18:32:42;3.50;99.90
7842;DHT22;3966;51.052;13.820;2023-02-01T18:35:29;3.50;99.90
7842;DHT22;3966;51.052;13.820;2023-02-01T18:37:55;3.60;99.90
7842;DHT22;3966;51.052;13.820;2023-02-01T18:40:27;3.60;99.90
7842;DHT22;3966;51.052;13.820;2023-02-01T18:42:54;3.60;99.90
7842;DHT22;3966;51.052;13.820;2023-02-01T18:47:51;3.60;99.90
7842;DHT22;3966;51.052;13.820;2023-02-01T18:50:17;3.70;99.90
7842;DHT22;3966;51.052;13.820;2023-02-01T18:52:43;3.60;99.90
7842;DHT22;3966;51.052;13.820;2023-02-01T18:55:10;3.70;99.90
7842;DHT22;3966;51.052;13.820;2023-02-01T18:57:36;3.60;99.90